sensor_id;sensor_type;location;lat;lon;timestamp;temperature;humidity
50738;DHT22;36703;48.154;17.126;2022-09-09T00:01:51;23.80;57.60
50738;DHT22;36703;48.154;17.126;2022-09-09T00:06:21;23.60;70.60
50738;DHT22;36703;48.154;17.126;2022-09-09T00:10:30;23.40;77.50
50738;DHT22;36703;48.154;17.126;2022-09-09T00:23:30;22.90;88.00
50738;DHT22;36703;48.154;17.126;2022-09-09T00:31:48;22.90;87.40
50738;DHT22;36703;48.154;17.126;2022-09-09T00:35:53;23.00;84.10
50738;DHT22;36703;48.154;17.126;2022-09-09T00:40:02;23.20;80.90
50738;DHT22;36703;48.154;17.126;2022-09-09T00:44:32;23.20;80.40
50738;DHT22;36703;48.154;17.126;2022-09-09T00:53:56;23.10;77.10
50738;DHT22;36703;48.154;17.126;2022-09-09T00:58:07;23.00;76.40
50738;DHT22;36703;48.154;17.126;2022-09-09T01:02:27;23.00;76.00
50738;DHT22;36703;48.154;17.126;2022-09-09T01:06:32;23.00;75.70
50738;DHT22;36703;48.154;17.126;2022-09-09T01:10:52;22.90;74.30
50738;DHT22;36703;48.154;17.126;2022-09-09T01:15:17;22.90;74.80
50738;DHT22;36703;48.154;17.126;2022-09-09T01:19:58;22.90;75.40
50738;DHT22;36703;48.154;17.126;2022-09-09T01:24:40;22.90;75.60
50738;DHT22;36703;48.154;17.126;2022-09-09T01:28:58;23.00;68.20
50738;DHT22;36703;48.154;17.126;2022-09-09T01:33:17;23.10;69.20
50738;DHT22;36703;48.154;17.126;2022-09-09T01:37:19;23.00;75.10
50738;DHT22;36703;48.154;17.126;2022-09-09T01:41:20;23.00;75.70
50738;DHT22;36703;48.154;17.126;2022-09-09T01:45:34;23.10;73.50
50738;DHT22;36703;48.154;17.126;2022-09-09T01:49:35;23.20;60.20
50738;DHT22;36703;48.154;17.126;2022-09-09T01:53:45;23.20;66.00
50738;DHT22;36703;48.154;17.126;2022-09-09T02:03:07;23.10;70.60
50738;DHT22;36703;48.154;17.126;2022-09-09T02:07:41;22.80;70.30
50738;DHT22;36703;48.154;17.126;2022-09-09T02:12:08;22.80;58.10
50738;DHT22;36703;48.154;17.126;2022-09-09T02:16:44;22.70;57.90
50738;DHT22;36703;48.154;17.126;2022-09-09T02:20:49;22.70;57.50
50738;DHT22;36703;48.154;17.126;2022-09-09T02:24:53;22.70;57.60
50738;DHT22;36703;48.154;17.126;2022-09-09T02:29:03;22.70;56.20
50738;DHT22;36703;48.154;17.126;2022-09-09T02:33:07;22.60;56.60
50738;DHT22;36703;48.154;17.126;2022-09-09T02:37:20;22.60;56.60
50738;DHT22;36703;48.154;17.126;2022-09-09T02:41:33;22.60;55.40
50738;DHT22;36703;48.154;17.126;2022-09-09T02:46:02;22.60;56.20
50738;DHT22;36703;48.154;17.126;2022-09-09T02:50:29;22.60;55.40
50738;DHT22;36703;48.154;17.126;2022-09-09T02:54:37;22.60;55.00
50738;DHT22;36703;48.154;17.126;2022-09-09T02:58:43;22.60;55.20
50738;DHT22;36703;48.154;17.126;2022-09-09T03:02:45;22.70;54.40
50738;DHT22;36703;48.154;17.126;2022-09-09T03:06:47;22.60;54.60
50738;DHT22;36703;48.154;17.126;2022-09-09T03:10:54;22.60;54.60
50738;DHT22;36703;48.154;17.126;2022-09-09T03:14:56;22.70;54.20
50738;DHT22;36703;48.154;17.126;2022-09-09T03:18:58;22.70;56.50
50738;DHT22;36703;48.154;17.126;2022-09-09T03:23:00;22.70;53.90
50738;DHT22;36703;48.154;17.126;2022-09-09T03:27:03;22.70;53.60
50738;DHT22;36703;48.154;17.126;2022-09-09T03:31:06;22.70;53.20
50738;DHT22;36703;48.154;17.126;2022-09-09T03:35:12;22.60;53.30
50738;DHT22;36703;48.154;17.126;2022-09-09T03:39:14;22.40;53.10
50738;DHT22;36703;48.154;17.126;2022-09-09T03:43:17;22.40;53.20
50738;DHT22;36703;48.154;17.126;2022-09-09T03:47:20;22.30;53.40
50738;DHT22;36703;48.154;17.126;2022-09-09T03:51:23;22.40;54.60
50738;DHT22;36703;48.154;17.126;2022-09-09T03:55:25;22.40;54.90
50738;DHT22;36703;48.154;17.126;2022-09-09T06:13:20;23.40;52.70
50738;DHT22;36703;48.154;17.126;2022-09-09T06:17:21;23.30;53.80
50738;DHT22;36703;48.154;17.126;2022-09-09T06:21:24;23.40;53.80
50738;DHT22;36703;48.154;17.126;2022-09-09T06:25:34;23.50;53.70
50738;DHT22;36703;48.154;17.126;2022-09-09T06:29:36;23.60;53.20
50738;DHT22;36703;48.154;17.126;2022-09-09T06:33:39;23.60;53.30
50738;DHT22;36703;48.154;17.126;2022-09-09T06:37:46;23.80;53.00
50738;DHT22;36703;48.154;17.126;2022-09-09T06:41:50;23.90;53.10
50738;DHT22;36703;48.154;17.126;2022-09-09T06:46:21;23.90;52.00
50738;DHT22;36703;48.154;17.126;2022-09-09T06:50:25;24.00;51.90
50738;DHT22;36703;48.154;17.126;2022-09-09T06:54:29;24.20;51.80
50738;DHT22;36703;48.154;17.126;2022-09-09T06:58:30;24.30;51.60
50738;DHT22;36703;48.154;17.126;2022-09-09T07:02:34;24.40;51.40
50738;DHT22;36703;48.154;17.126;2022-09-09T07:06:43;24.50;51.20
50738;DHT22;36703;48.154;17.126;2022-09-09T07:10:48;24.60;50.90
50738;DHT22;36703;48.154;17.126;2022-09-09T07:14:50;24.80;50.60
50738;DHT22;36703;48.154;17.126;2022-09-09T07:18:53;25.00;50.40
50738;DHT22;36703;48.154;17.126;2022-09-09T07:22:56;25.10;49.90
50738;DHT22;36703;48.154;17.126;2022-09-09T07:26:58;25.10;49.50
50738;DHT22;36703;48.154;17.126;2022-09-09T07:31:01;25.10;49.40
50738;DHT22;36703;48.154;17.126;2022-09-09T07:35:04;25.20;49.00
50738;DHT22;36703;48.154;17.126;2022-09-09T07:39:09;25.20;48.80
50738;DHT22;36703;48.154;17.126;2022-09-09T07:43:13;25.20;49.10
50738;DHT22;36703;48.154;17.126;2022-09-09T07:47:14;25.30;48.80
50738;DHT22;36703;48.154;17.126;2022-09-09T07:51:28;25.30;48.50
50738;DHT22;36703;48.154;17.126;2022-09-09T07:55:31;25.50;48.40
50738;DHT22;36703;48.154;17.126;2022-09-09T07:59:33;25.60;48.00
50738;DHT22;36703;48.154;17.126;2022-09-09T08:03:34;25.70;47.70
50738;DHT22;36703;48.154;17.126;2022-09-09T08:07:36;25.80;47.40
50738;DHT22;36703;48.154;17.126;2022-09-09T08:11:38;25.90;47.10
50738;DHT22;36703;48.154;17.126;2022-09-09T08:15:40;26.00;46.90
50738;DHT22;36703;48.154;17.126;2022-09-09T08:19:42;26.10;46.70
50738;DHT22;36703;48.154;17.126;2022-09-09T08:23:52;26.20;46.20
50738;DHT22;36703;48.154;17.126;2022-09-09T08:27:54;26.20;45.50
50738;DHT22;36703;48.154;17.126;2022-09-09T08:31:58;26.60;45.10
50738;DHT22;36703;48.154;17.126;2022-09-09T08:36:02;26.70;44.50
50738;DHT22;36703;48.154;17.126;2022-09-09T08:40:04;26.70;43.90
50738;DHT22;36703;48.154;17.126;2022-09-09T08:54:13;27.10;43.30
50738;DHT22;36703;48.154;17.126;2022-09-09T08:58:28;27.10;43.10
50738;DHT22;36703;48.154;17.126;2022-09-09T09:11:58;27.40;41.80
50738;DHT22;36703;48.154;17.126;2022-09-09T09:16:30;27.40;41.50
50738;DHT22;36703;48.154;17.126;2022-09-09T09:24:56;27.40;41.40
50738;DHT22;36703;48.154;17.126;2022-09-09T09:29:18;27.70;41.20
50738;DHT22;36703;48.154;17.126;2022-09-09T09:33:29;27.90;41.20
50738;DHT22;36703;48.154;17.126;2022-09-09T09:37:40;28.20;41.00
50738;DHT22;36703;48.154;17.126;2022-09-09T09:41:45;28.50;41.50
50738;DHT22;36703;48.154;17.126;2022-09-09T09:45:48;28.70;40.90
50738;DHT22;36703;48.154;17.126;2022-09-09T09:49:56;29.30;40.60
50738;DHT22;36703;48.154;17.126;2022-09-09T09:54:38;29.60;39.80
50738;DHT22;36703;48.154;17.126;2022-09-09T10:02:50;30.10;38.30
50738;DHT22;36703;48.154;17.126;2022-09-09T10:06:57;30.40;37.40
50738;DHT22;36703;48.154;17.126;2022-09-09T10:19:36;30.50;36.40
50738;DHT22;36703;48.154;17.126;2022-09-09T10:33:10;30.40;34.60
50738;DHT22;36703;48.154;17.126;2022-09-09T10:42:16;30.60;34.10
50738;DHT22;36703;48.154;17.126;2022-09-09T10:55:45;30.40;34.00
50738;DHT22;36703;48.154;17.126;2022-09-09T10:59:53;30.30;33.90
50738;DHT22;36703;48.154;17.126;2022-09-09T11:04:04;30.10;34.00
50738;DHT22;36703;48.154;17.126;2022-09-09T11:08:18;30.00;34.20
50738;DHT22;36703;48.154;17.126;2022-09-09T11:12:20;29.90;34.80
50738;DHT22;36703;48.154;17.126;2022-09-09T11:16:38;29.90;35.30
50738;DHT22;36703;48.154;17.126;2022-09-09T11:20:43;30.10;35.60
50738;DHT22;36703;48.154;17.126;2022-09-09T11:38:07;31.30;33.40
50738;DHT22;36703;48.154;17.126;2022-09-09T11:46:15;31.30;33.30
50738;DHT22;36703;48.154;17.126;2022-09-09T11:54:29;30.90;31.80
50738;DHT22;36703;48.154;17.126;2022-09-09T11:58:41;30.80;31.10
50738;DHT22;36703;48.154;17.126;2022-09-09T12:02:50;30.70;30.50
50738;DHT22;36703;48.154;17.126;2022-09-09T12:07:29;30.60;30.90
50738;DHT22;36703;48.154;17.126;2022-09-09T12:11:31;30.70;31.20
50738;DHT22;36703;48.154;17.126;2022-09-09T12:15:32;30.90;31.10
50738;DHT22;36703;48.154;17.126;2022-09-09T12:19:34;31.00;31.10
50738;DHT22;36703;48.154;17.126;2022-09-09T12:23:40;31.20;30.90
50738;DHT22;36703;48.154;17.126;2022-09-09T12:28:37;31.40;30.70
50738;DHT22;36703;48.154;17.126;2022-09-09T12:33:33;31.40;30.70
50738;DHT22;36703;48.154;17.126;2022-09-09T12:37:38;31.40;30.40
50738;DHT22;36703;48.154;17.126;2022-09-09T12:41:51;31.30;30.50
50738;DHT22;36703;48.154;17.126;2022-09-09T12:46:08;31.30;30.10
50738;DHT22;36703;48.154;17.126;2022-09-09T12:50:27;31.10;29.80
50738;DHT22;36703;48.154;17.126;2022-09-09T12:54:30;31.00;29.90
50738;DHT22;36703;48.154;17.126;2022-09-09T12:58:32;30.90;29.90
50738;DHT22;36703;48.154;17.126;2022-09-09T13:02:34;30.80;29.90
50738;DHT22;36703;48.154;17.126;2022-09-09T13:06:35;30.80;30.00
50738;DHT22;36703;48.154;17.126;2022-09-09T13:10:46;30.90;30.10
50738;DHT22;36703;48.154;17.126;2022-09-09T13:14:56;30.90;30.00
50738;DHT22;36703;48.154;17.126;2022-09-09T13:19:08;30.80;30.10
50738;DHT22;36703;48.154;17.126;2022-09-09T13:23:15;30.70;30.10
50738;DHT22;36703;48.154;17.126;2022-09-09T13:27:26;30.70;30.30
50738;DHT22;36703;48.154;17.126;2022-09-09T13:31:32;30.60;30.30
50738;DHT22;36703;48.154;17.126;2022-09-09T13:35:35;30.50;30.40
50738;DHT22;36703;48.154;17.126;2022-09-09T13:39:56;30.40;30.40
50738;DHT22;36703;48.154;17.126;2022-09-09T13:43:57;30.40;30.50
50738;DHT22;36703;48.154;17.126;2022-09-09T13:48:09;30.30;30.60
50738;DHT22;36703;48.154;17.126;2022-09-09T13:52:16;30.20;30.80
50738;DHT22;36703;48.154;17.126;2022-09-09T13:56:19;30.10;30.70
50738;DHT22;36703;48.154;17.126;2022-09-09T14:00:20;30.00;30.70
50738;DHT22;36703;48.154;17.126;2022-09-09T14:04:22;30.00;30.90
50738;DHT22;36703;48.154;17.126;2022-09-09T14:08:25;29.80;31.00
50738;DHT22;36703;48.154;17.126;2022-09-09T14:12:28;29.70;31.00
50738;DHT22;36703;48.154;17.126;2022-09-09T14:16:29;29.70;31.00
50738;DHT22;36703;48.154;17.126;2022-09-09T14:20:30;29.60;31.00
50738;DHT22;36703;48.154;17.126;2022-09-09T14:24:33;29.60;31.30
50738;DHT22;36703;48.154;17.126;2022-09-09T14:28:35;29.60;31.50
50738;DHT22;36703;48.154;17.126;2022-09-09T14:32:37;29.60;31.70
50738;DHT22;36703;48.154;17.126;2022-09-09T14:36:38;29.50;31.60
50738;DHT22;36703;48.154;17.126;2022-09-09T14:40:40;29.40;31.50
50738;DHT22;36703;48.154;17.126;2022-09-09T14:44:41;29.40;31.90
50738;DHT22;36703;48.154;17.126;2022-09-09T14:48:43;29.30;31.90
50738;DHT22;36703;48.154;17.126;2022-09-09T14:52:49;29.30;32.50
50738;DHT22;36703;48.154;17.126;2022-09-09T14:57:10;29.20;32.70
50738;DHT22;36703;48.154;17.126;2022-09-09T15:01:47;29.00;33.20
50738;DHT22;36703;48.154;17.126;2022-09-09T15:05:50;29.00;33.80
50738;DHT22;36703;48.154;17.126;2022-09-09T15:09:54;28.90;38.50
50738;DHT22;36703;48.154;17.126;2022-09-09T15:14:09;28.90;35.00
50738;DHT22;36703;48.154;17.126;2022-09-09T15:18:55;28.80;34.30
50738;DHT22;36703;48.154;17.126;2022-09-09T15:22:57;28.80;34.70
50738;DHT22;36703;48.154;17.126;2022-09-09T15:26:59;28.80;34.90
50738;DHT22;36703;48.154;17.126;2022-09-09T15:31:05;28.80;35.10
50738;DHT22;36703;48.154;17.126;2022-09-09T15:35:14;28.80;35.20
50738;DHT22;36703;48.154;17.126;2022-09-09T15:39:18;28.80;35.30
50738;DHT22;36703;48.154;17.126;2022-09-09T15:43:19;28.80;35.50
50738;DHT22;36703;48.154;17.126;2022-09-09T15:47:20;28.70;35.60
50738;DHT22;36703;48.154;17.126;2022-09-09T15:51:23;28.60;36.10
50738;DHT22;36703;48.154;17.126;2022-09-09T15:55:25;28.50;36.30
50738;DHT22;36703;48.154;17.126;2022-09-09T15:59:29;28.40;36.40
50738;DHT22;36703;48.154;17.126;2022-09-09T16:03:35;28.40;36.80
50738;DHT22;36703;48.154;17.126;2022-09-09T16:07:37;28.40;37.00
50738;DHT22;36703;48.154;17.126;2022-09-09T16:11:38;28.30;37.10
50738;DHT22;36703;48.154;17.126;2022-09-09T16:15:40;28.30;37.00
50738;DHT22;36703;48.154;17.126;2022-09-09T16:19:41;28.30;37.00
50738;DHT22;36703;48.154;17.126;2022-09-09T16:23:43;28.20;37.10
50738;DHT22;36703;48.154;17.126;2022-09-09T16:27:44;28.20;37.10
50738;DHT22;36703;48.154;17.126;2022-09-09T16:31:48;28.20;37.20
50738;DHT22;36703;48.154;17.126;2022-09-09T16:35:49;28.20;37.40
50738;DHT22;36703;48.154;17.126;2022-09-09T16:39:51;28.20;37.50
50738;DHT22;36703;48.154;17.126;2022-09-09T16:43:53;28.20;37.40
50738;DHT22;36703;48.154;17.126;2022-09-09T16:47:57;28.20;37.40
50738;DHT22;36703;48.154;17.126;2022-09-09T16:51:59;28.20;37.40
50738;DHT22;36703;48.154;17.126;2022-09-09T16:56:07;28.20;37.50
50738;DHT22;36703;48.154;17.126;2022-09-09T17:00:10;28.10;37.40
50738;DHT22;36703;48.154;17.126;2022-09-09T17:04:25;28.10;37.30
50738;DHT22;36703;48.154;17.126;2022-09-09T17:08:30;28.10;37.50
50738;DHT22;36703;48.154;17.126;2022-09-09T17:12:32;28.10;37.70
50738;DHT22;36703;48.154;17.126;2022-09-09T17:16:33;28.10;38.00
50738;DHT22;36703;48.154;17.126;2022-09-09T17:20:37;28.10;38.30
50738;DHT22;36703;48.154;17.126;2022-09-09T17:24:39;28.00;38.20
50738;DHT22;36703;48.154;17.126;2022-09-09T17:28:42;28.00;38.30
50738;DHT22;36703;48.154;17.126;2022-09-09T17:32:43;27.90;38.50
50738;DHT22;36703;48.154;17.126;2022-09-09T17:36:45;27.80;38.70
50738;DHT22;36703;48.154;17.126;2022-09-09T17:40:46;27.80;38.90
50738;DHT22;36703;48.154;17.126;2022-09-09T17:44:49;27.80;39.10
50738;DHT22;36703;48.154;17.126;2022-09-09T17:48:52;27.70;39.20
50738;DHT22;36703;48.154;17.126;2022-09-09T17:52:57;27.70;39.30
50738;DHT22;36703;48.154;17.126;2022-09-09T17:56:58;27.70;39.40
50738;DHT22;36703;48.154;17.126;2022-09-09T18:01:04;27.70;39.50
50738;DHT22;36703;48.154;17.126;2022-09-09T18:05:08;27.60;39.60
50738;DHT22;36703;48.154;17.126;2022-09-09T18:09:13;27.40;39.70
50738;DHT22;36703;48.154;17.126;2022-09-09T18:13:15;27.40;40.10
50738;DHT22;36703;48.154;17.126;2022-09-09T18:17:17;27.30;40.10
50738;DHT22;36703;48.154;17.126;2022-09-09T18:21:19;27.30;40.20
50738;DHT22;36703;48.154;17.126;2022-09-09T18:25:20;27.20;40.20
50738;DHT22;36703;48.154;17.126;2022-09-09T18:29:23;27.20;40.60
50738;DHT22;36703;48.154;17.126;2022-09-09T18:33:27;27.30;40.80
50738;DHT22;36703;48.154;17.126;2022-09-09T18:37:29;27.40;40.90
50738;DHT22;36703;48.154;17.126;2022-09-09T18:41:39;27.30;40.60
50738;DHT22;36703;48.154;17.126;2022-09-09T18:45:42;27.10;40.50
50738;DHT22;36703;48.154;17.126;2022-09-09T18:49:44;26.90;40.80
50738;DHT22;36703;48.154;17.126;2022-09-09T18:53:59;26.60;41.80
50738;DHT22;36703;48.154;17.126;2022-09-09T18:58:02;26.40;42.80
50738;DHT22;36703;48.154;17.126;2022-09-09T19:02:03;26.30;43.50
50738;DHT22;36703;48.154;17.126;2022-09-09T19:06:08;26.20;44.00
50738;DHT22;36703;48.154;17.126;2022-09-09T19:10:11;26.10;44.60
50738;DHT22;36703;48.154;17.126;2022-09-09T19:14:15;26.20;44.90
50738;DHT22;36703;48.154;17.126;2022-09-09T19:18:17;26.30;45.00
50738;DHT22;36703;48.154;17.126;2022-09-09T19:22:18;26.30;45.10
50738;DHT22;36703;48.154;17.126;2022-09-09T19:26:20;26.20;45.30
50738;DHT22;36703;48.154;17.126;2022-09-09T19:30:22;26.10;45.70
50738;DHT22;36703;48.154;17.126;2022-09-09T19:34:25;26.10;46.10
50738;DHT22;36703;48.154;17.126;2022-09-09T19:38:28;26.20;46.10
50738;DHT22;36703;48.154;17.126;2022-09-09T19:42:29;26.20;46.30
50738;DHT22;36703;48.154;17.126;2022-09-09T19:46:34;26.10;46.70
50738;DHT22;36703;48.154;17.126;2022-09-09T19:50:36;25.80;46.80
50738;DHT22;36703;48.154;17.126;2022-09-09T19:54:38;25.40;47.30
50738;DHT22;36703;48.154;17.126;2022-09-09T19:58:40;25.20;48.00
50738;DHT22;36703;48.154;17.126;2022-09-09T20:03:15;25.10;48.30
50738;DHT22;36703;48.154;17.126;2022-09-09T20:08:11;24.90;48.80
50738;DHT22;36703;48.154;17.126;2022-09-09T20:12:13;24.90;48.90
50738;DHT22;36703;48.154;17.126;2022-09-09T20:16:16;25.00;48.90
50738;DHT22;36703;48.154;17.126;2022-09-09T20:20:20;24.90;48.90
50738;DHT22;36703;48.154;17.126;2022-09-09T20:24:21;24.90;48.90
50738;DHT22;36703;48.154;17.126;2022-09-09T20:28:24;25.10;48.90
50738;DHT22;36703;48.154;17.126;2022-09-09T20:32:25;25.10;48.90
50738;DHT22;36703;48.154;17.126;2022-09-09T20:36:28;25.00;48.70
50738;DHT22;36703;48.154;17.126;2022-09-09T20:40:34;25.00;48.80
50738;DHT22;36703;48.154;17.126;2022-09-09T20:44:37;25.00;48.70
50738;DHT22;36703;48.154;17.126;2022-09-09T20:48:38;25.10;48.70
50738;DHT22;36703;48.154;17.126;2022-09-09T20:52:40;25.20;48.60
50738;DHT22;36703;48.154;17.126;2022-09-09T20:56:42;25.30;48.40
50738;DHT22;36703;48.154;17.126;2022-09-09T21:00:45;25.10;48.60
50738;DHT22;36703;48.154;17.126;2022-09-09T21:04:46;25.00;49.00
50738;DHT22;36703;48.154;17.126;2022-09-09T21:08:48;25.00;49.40
50738;DHT22;36703;48.154;17.126;2022-09-09T21:12:49;25.00;49.40
50738;DHT22;36703;48.154;17.126;2022-09-09T21:16:51;25.00;50.00
50738;DHT22;36703;48.154;17.126;2022-09-09T21:20:52;25.10;50.10
50738;DHT22;36703;48.154;17.126;2022-09-09T21:24:56;25.10;51.10
50738;DHT22;36703;48.154;17.126;2022-09-09T21:28:58;25.00;51.60
50738;DHT22;36703;48.154;17.126;2022-09-09T21:33:03;25.10;49.70
50738;DHT22;36703;48.154;17.126;2022-09-09T21:37:05;25.10;49.60
50738;DHT22;36703;48.154;17.126;2022-09-09T21:41:10;25.10;49.70
50738;DHT22;36703;48.154;17.126;2022-09-09T21:45:15;24.90;50.00
50738;DHT22;36703;48.154;17.126;2022-09-09T21:49:16;24.70;50.60
50738;DHT22;36703;48.154;17.126;2022-09-09T21:53:17;24.70;50.90
50738;DHT22;36703;48.154;17.126;2022-09-09T21:57:20;24.60;51.00
50738;DHT22;36703;48.154;17.126;2022-09-09T22:01:21;24.70;51.10
50738;DHT22;36703;48.154;17.126;2022-09-09T22:05:25;24.60;51.20
50738;DHT22;36703;48.154;17.126;2022-09-09T22:09:26;24.50;51.30
50738;DHT22;36703;48.154;17.126;2022-09-09T22:13:28;24.50;51.40
50738;DHT22;36703;48.154;17.126;2022-09-09T22:17:29;24.50;51.30
50738;DHT22;36703;48.154;17.126;2022-09-09T22:21:31;24.40;51.40
50738;DHT22;36703;48.154;17.126;2022-09-09T22:25:34;24.30;51.60
50738;DHT22;36703;48.154;17.126;2022-09-09T22:29:37;24.20;51.90
50738;DHT22;36703;48.154;17.126;2022-09-09T22:33:41;24.10;51.90
50738;DHT22;36703;48.154;17.126;2022-09-09T22:37:43;24.10;51.80
50738;DHT22;36703;48.154;17.126;2022-09-09T22:41:44;24.10;51.70
50738;DHT22;36703;48.154;17.126;2022-09-09T22:45:47;24.00;51.60
50738;DHT22;36703;48.154;17.126;2022-09-09T22:49:49;24.00;51.50
50738;DHT22;36703;48.154;17.126;2022-09-09T22:53:52;23.90;51.50
50738;DHT22;36703;48.154;17.126;2022-09-09T22:57:53;23.90;51.50
50738;DHT22;36703;48.154;17.126;2022-09-09T23:01:55;24.00;51.50
50738;DHT22;36703;48.154;17.126;2022-09-09T23:06:00;23.90;51.60
50738;DHT22;36703;48.154;17.126;2022-09-09T23:10:04;23.80;51.70
50738;DHT22;36703;48.154;17.126;2022-09-09T23:14:08;23.80;51.80
50738;DHT22;36703;48.154;17.126;2022-09-09T23:18:11;23.90;51.90
50738;DHT22;36703;48.154;17.126;2022-09-09T23:22:14;23.70;52.00
50738;DHT22;36703;48.154;17.126;2022-09-09T23:26:15;23.50;52.30
50738;DHT22;36703;48.154;17.126;2022-09-09T23:30:20;23.30;52.90
50738;DHT22;36703;48.154;17.126;2022-09-09T23:34:21;23.20;53.10
50738;DHT22;36703;48.154;17.126;2022-09-09T23:38:22;23.10;53.30
50738;DHT22;36703;48.154;17.126;2022-09-09T23:42:24;23.00;53.50
50738;DHT22;36703;48.154;17.126;2022-09-09T23:46:27;23.00;53.70
50738;DHT22;36703;48.154;17.126;2022-09-09T23:50:29;22.90;53.70
50738;DHT22;36703;48.154;17.126;2022-09-09T23:54:31;22.80;53.60
50738;DHT22;36703;48.154;17.126;2022-09-09T23:58:34;22.80;53.00
